Terminal Aerodrome Forecast
Issued by NWS

Home | Current Version | Previous Version | Text Only | Print | Product List | Glossary On
Versions: 1 2 3 4 5 6 7 8 9 10 11 12 13 14 15 16 17 18 19 20 21 22
000
FTUS43 KGRB 292300
TAFMTW
TAF
KMTW 292320Z 3000/3024 33018G27KT P6SM -SN SCT028 OVC040
     FM300900 33011KT P6SM SCT025 SCT035
     FM301700 32006KT P6SM SCT030 BKN150=

USA.gov is the U.S. government's official web portal to all federal, state and local government web resources and services.